createdAt,value
2022-11-25T00:02:32.600Z,3.67
2022-11-25T00:07:39.047Z,4.05
2022-11-25T00:12:42.914Z,4.25
2022-11-25T00:17:46.624Z,4.07
2022-11-25T00:22:52.040Z,3.80
2022-11-25T00:27:55.833Z,3.62
2022-11-25T00:33:00.938Z,4.12
2022-11-25T00:38:06.078Z,4.93
2022-11-25T00:43:23.991Z,3.58
2022-11-25T00:48:27.694Z,4.35
2022-11-25T00:53:33.256Z,4.03
2022-11-25T00:58:36.961Z,3.75
2022-11-25T01:03:40.679Z,4.10
2022-11-25T01:08:45.978Z,4.25
2022-11-25T01:13:50.334Z,4.15
2022-11-25T01:18:54.054Z,4.07
2022-11-25T01:24:01.145Z,3.97
2022-11-25T01:29:07.720Z,4.45
2022-11-25T01:34:16.239Z,3.58
2022-11-25T01:39:28.683Z,4.05
2022-11-25T01:44:37.740Z,3.42
2022-11-25T01:49:45.860Z,5.25
2022-11-25T01:54:57.316Z,3.42
2022-11-25T02:00:04.991Z,3.95
2022-11-25T02:05:30.940Z,3.25
2022-11-25T02:10:39.626Z,3.40
2022-11-25T02:15:43.440Z,2.83
2022-11-25T02:20:47.383Z,2.30
2022-11-25T02:25:54.620Z,2.15
2022-11-25T02:30:58.913Z,2.10
2022-11-25T02:36:06.152Z,1.92
2022-11-25T02:41:14.395Z,2.72
2022-11-25T02:46:22.961Z,2.60
2022-11-25T02:51:29.770Z,2.05
2022-11-25T02:56:37.339Z,2.35
2022-11-25T03:01:41.321Z,2.58
2022-11-25T03:06:45.416Z,2.60
2022-11-25T03:12:07.974Z,1.70
2022-11-25T03:17:11.904Z,1.52
2022-11-25T03:22:15.810Z,2.35
2022-11-25T03:27:21.211Z,1.25
2022-11-25T03:32:25.089Z,2.35
2022-11-25T03:37:28.973Z,1.35
2022-11-25T03:42:34.385Z,1.23
2022-11-25T03:47:39.137Z,1.62
2022-11-25T03:52:42.890Z,1.35
2022-11-25T03:57:48.337Z,1.37
2022-11-25T04:02:52.181Z,1.20
2022-11-25T04:07:58.178Z,1.75
2022-11-25T04:13:03.827Z,1.45
2022-11-25T04:18:08.860Z,1.00
2022-11-25T04:23:13.485Z,1.48
2022-11-25T04:28:19.829Z,1.58
2022-11-25T04:33:23.997Z,1.77
2022-11-25T04:38:27.883Z,1.45
2022-11-25T04:43:36.004Z,1.50
2022-11-25T04:48:40.821Z,1.40
2022-11-25T04:53:45.884Z,1.55
2022-11-25T04:59:08.880Z,2.15
2022-11-25T05:04:14.236Z,1.75
2022-11-25T05:09:18.291Z,1.60
2022-11-25T05:14:25.389Z,1.70
2022-11-25T05:19:29.324Z,2.33
2022-11-25T05:24:34.169Z,1.73
2022-11-25T05:29:40.891Z,2.05
2022-11-25T05:34:45.559Z,1.62
2022-11-25T05:39:49.955Z,1.98
2022-11-25T05:44:58.083Z,2.00
2022-11-25T05:50:02.125Z,2.30
2022-11-25T05:55:07.021Z,2.00
2022-11-25T06:00:13.765Z,2.00
2022-11-25T06:05:18.350Z,2.75
2022-11-25T06:10:22.434Z,3.03
2022-11-25T06:15:28.063Z,1.90
2022-11-25T06:20:32.799Z,2.58
2022-11-25T06:25:37.567Z,2.20
2022-11-25T06:30:44.589Z,2.45
2022-11-25T06:35:49.993Z,2.42
2022-11-25T06:40:56.443Z,2.28
2022-11-25T06:46:06.017Z,2.33
2022-11-25T06:51:12.671Z,2.62
2022-11-25T06:56:18.628Z,2.35
2022-11-25T07:01:25.681Z,3.20
2022-11-25T07:06:29.427Z,2.72
2022-11-25T07:11:35.677Z,3.53
2022-11-25T07:16:43.865Z,3.05
2022-11-25T07:26:51.482Z,2.97
2022-11-25T07:31:56.510Z,3.53
2022-11-25T07:37:00.254Z,4.25
2022-11-25T07:42:04.024Z,2.97
2022-11-25T07:47:09.107Z,3.40
2022-11-25T07:52:12.812Z,3.50
2022-11-25T07:57:16.604Z,3.03
2022-11-25T08:02:21.707Z,3.28
2022-11-25T08:07:25.639Z,3.50
2022-11-25T08:12:29.389Z,3.90
2022-11-25T08:17:34.527Z,3.28
2022-11-25T08:22:38.284Z,3.03
2022-11-25T08:27:42.307Z,2.95
2022-11-25T08:32:47.585Z,3.78
2022-11-25T08:37:51.287Z,4.90
2022-11-25T08:42:55.130Z,3.62
2022-11-25T08:48:00.354Z,4.28
2022-11-25T08:53:04.168Z,3.50
2022-11-25T08:58:10.130Z,3.37
2022-11-25T09:03:15.326Z,3.85
2022-11-25T09:08:19.329Z,3.47
2022-11-25T09:13:23.093Z,3.58
2022-11-25T09:18:30.366Z,4.30
2022-11-25T09:23:34.099Z,4.75
2022-11-25T09:28:37.852Z,4.07
2022-11-25T09:33:43.152Z,3.65
2022-11-25T09:38:47.740Z,3.05
2022-11-25T09:44:20.844Z,3.78
2022-11-25T09:49:47.029Z,4.03
2022-11-25T09:54:59.139Z,3.62
2022-11-25T10:00:12.871Z,3.70
2022-11-25T10:05:22.291Z,8.48
2022-11-25T10:10:29.896Z,4.20
2022-11-25T10:15:36.628Z,4.20
2022-11-25T10:20:43.628Z,3.60
2022-11-25T10:25:51.477Z,3.37
2022-11-25T10:31:02.669Z,3.37
2022-11-25T10:36:15.733Z,3.10
2022-11-25T10:41:22.270Z,3.40
2022-11-25T10:46:57.416Z,3.55
2022-11-25T10:52:02.028Z,3.67
2022-11-25T10:57:18.754Z,3.60
2022-11-25T11:02:26.728Z,3.10
2022-11-25T11:07:34.186Z,2.55
2022-11-25T11:12:38.023Z,3.10
2022-11-25T11:17:42.000Z,2.17
2022-11-25T11:22:55.722Z,2.40
2022-11-25T11:28:00.246Z,2.65
2022-11-25T11:33:06.761Z,3.12
2022-11-25T11:38:25.848Z,2.55
2022-11-25T11:43:54.371Z,3.80
2022-11-25T11:49:10.581Z,2.67
2022-11-25T11:54:20.719Z,2.90
2022-11-25T11:59:49.899Z,2.80
2022-11-25T12:05:01.778Z,2.40
2022-11-25T12:10:20.083Z,3.97
2022-11-25T12:20:39.629Z,3.20
2022-11-25T12:25:46.854Z,3.10
2022-11-25T12:31:05.105Z,4.18
2022-11-25T12:36:14.387Z,3.50
2022-11-25T12:41:26.065Z,4.10
2022-11-25T12:46:36.211Z,3.65
2022-11-25T12:51:52.645Z,4.75
2022-11-25T12:57:22.631Z,4.10
2022-11-25T13:02:55.598Z,4.62
2022-11-25T13:08:10.727Z,3.95
2022-11-25T13:13:33.964Z,4.37
2022-11-25T13:18:42.455Z,4.45
2022-11-25T13:28:57.921Z,3.42
2022-11-25T13:34:21.952Z,3.28
2022-11-25T13:39:34.376Z,4.35
2022-11-25T13:44:51.783Z,3.42
2022-11-25T13:49:58.237Z,3.83
2022-11-25T13:55:08.556Z,4.40
2022-11-25T14:00:59.966Z,3.55
2022-11-25T14:06:12.623Z,3.92
2022-11-25T14:11:50.365Z,5.00
2022-11-25T14:17:08.021Z,6.20
2022-11-25T14:22:32.120Z,5.27
2022-11-25T14:27:37.109Z,3.97
2022-11-25T14:32:45.883Z,4.90
2022-11-25T14:37:54.133Z,4.85
2022-11-25T14:43:04.370Z,3.92
2022-11-25T14:48:15.090Z,4.00
2022-11-25T14:53:20.191Z,4.75
2022-11-25T14:58:24.006Z,4.93
2022-11-25T15:03:28.643Z,4.10
2022-11-25T15:08:41.467Z,3.97
2022-11-25T15:13:47.722Z,8.27
2022-11-25T15:18:54.009Z,5.03
2022-11-25T15:23:59.403Z,4.35
2022-11-25T15:29:11.413Z,6.30
2022-11-25T15:34:17.274Z,5.47
2022-11-25T15:39:27.754Z,5.65
2022-11-25T15:44:34.904Z,5.00
2022-11-25T15:49:38.869Z,4.50
2022-11-25T15:54:47.131Z,4.95
2022-11-25T16:00:03.824Z,4.53
2022-11-25T16:05:26.095Z,5.68
2022-11-25T16:10:32.695Z,4.60
2022-11-25T16:15:48.661Z,4.10
2022-11-25T16:20:55.030Z,4.90
2022-11-25T16:26:03.583Z,4.97
2022-11-25T16:31:07.443Z,5.22
2022-11-25T16:36:11.281Z,5.80
2022-11-25T16:41:22.793Z,4.47
2022-11-25T16:46:26.607Z,6.50
2022-11-25T16:51:30.334Z,5.40
2022-11-25T16:56:38.107Z,6.22
2022-11-25T17:01:42.044Z,5.30
2022-11-25T17:07:09.570Z,5.47
2022-11-25T17:12:17.323Z,5.72
2022-11-25T17:17:24.617Z,6.53
2022-11-25T17:22:32.298Z,9.33
2022-11-25T17:27:40.517Z,7.78
2022-11-25T17:32:44.413Z,7.25
2022-11-25T17:37:48.830Z,8.75
2022-11-25T17:42:54.201Z,7.95
2022-11-25T17:47:57.872Z,8.65
2022-11-25T17:53:01.604Z,12.88
2022-11-25T17:58:08.709Z,7.93
2022-11-25T18:03:13.892Z,11.60
2022-11-25T18:08:17.767Z,9.27
2022-11-25T18:13:23.128Z,7.40
2022-11-25T18:18:27.385Z,9.25
2022-11-25T18:23:31.377Z,11.63
2022-11-25T18:28:36.508Z,13.98
2022-11-25T18:33:40.222Z,9.25
2022-11-25T18:38:45.640Z,7.22
2022-11-25T18:43:51.887Z,7.40
2022-11-25T18:48:56.371Z,8.63
2022-11-25T18:54:00.104Z,9.93
2022-11-25T18:59:06.081Z,13.68
2022-11-25T19:04:16.171Z,11.93
2022-11-25T19:09:19.993Z,9.98
2022-11-25T19:14:30.971Z,7.18
2022-11-25T19:19:37.761Z,9.15
2022-11-25T19:24:42.404Z,6.93
2022-11-25T19:29:48.537Z,5.62
2022-11-25T19:34:56.110Z,7.80
2022-11-25T19:39:59.848Z,7.20
2022-11-25T19:45:05.625Z,11.07
2022-11-25T19:50:16.768Z,7.10
2022-11-25T19:55:22.262Z,7.37
2022-11-25T20:00:27.811Z,9.50
2022-11-25T20:05:34.578Z,21.33
2022-11-25T20:10:38.685Z,17.17
2022-11-25T20:15:45.853Z,13.98
2022-11-25T20:20:56.933Z,12.68
2022-11-25T20:26:00.919Z,15.95
2022-11-25T20:31:06.139Z,11.05
2022-11-25T20:36:17.583Z,10.63
2022-11-25T20:41:27.727Z,9.98
2022-11-25T20:46:33.335Z,9.45
2022-11-25T20:51:37.014Z,11.20
2022-11-25T20:56:40.823Z,10.18
2022-11-25T21:01:45.988Z,12.95
2022-11-25T21:06:49.784Z,10.38
2022-11-25T21:11:53.578Z,14.23
2022-11-25T21:16:58.695Z,9.80
2022-11-25T21:22:02.756Z,9.50
2022-11-25T21:27:14.527Z,9.85
2022-11-25T21:32:22.823Z,12.18
2022-11-25T21:37:30.970Z,11.38
2022-11-25T21:42:34.946Z,10.15
2022-11-25T21:47:40.062Z,10.57
2022-11-25T21:52:43.793Z,10.32
2022-11-25T21:57:47.680Z,10.63
2022-11-25T22:02:53.174Z,11.18
2022-11-25T22:07:57.202Z,10.05
2022-11-25T22:13:01.089Z,10.00
2022-11-25T22:18:06.594Z,16.45
2022-11-25T22:23:14.941Z,11.95
2022-11-25T22:33:32.345Z,10.27
2022-11-25T22:38:36.093Z,11.20
2022-11-25T22:43:46.478Z,10.98
2022-11-25T22:48:51.583Z,10.43
2022-11-25T22:53:55.261Z,11.20
2022-11-25T22:59:01.174Z,10.30
2022-11-25T23:04:06.642Z,10.85
2022-11-25T23:09:15.546Z,10.75
2022-11-25T23:14:19.236Z,10.88
2022-11-25T23:19:24.407Z,11.60
2022-11-25T23:24:28.358Z,11.60
2022-11-25T23:29:32.065Z,12.10
2022-11-25T23:34:37.514Z,11.00
2022-11-25T23:39:41.692Z,12.68
2022-11-25T23:44:45.779Z,11.65
2022-11-25T23:49:53.883Z,11.98
2022-11-25T23:54:57.642Z,12.70
